Time;durP1;ratioP1;P1;durP2;ratioP2;P2;SDS_P1;SDS_P2;PMS_P1;PMS_P2;Temp;Humidity;BMP_temperature;BMP_pressure;BME280_temperature;BME280_humidity;BME280_pressure;Samples;Min_cycle;Max_cycle;Signal;HPM_P1;HPM_P2
2022/09/10 00:04:07;;;;;;;3.00;1.52;;;;;;;14.94;73.68;99876.69;10098685;29;20076;-79
2022/09/10 00:09:11;;;;;;;3.17;1.65;;;;;;;14.89;73.50;99873.63;10097767;29;20069;-80
2022/09/10 00:14:18;;;;;;;3.00;1.20;;;;;;;14.95;73.84;99871.13;10099171;29;20337;-80
2022/09/10 00:19:21;;;;;;;3.28;1.48;;;;;;;14.90;73.61;99872.63;10113353;29;20060;-80
2022/09/10 00:24:24;;;;;;;5.53;1.92;;;;;;;14.62;75.07;99883.69;10094758;29;20053;-79
2022/09/10 00:29:29;;;;;;;3.28;1.92;;;;;;;14.89;73.76;99882.59;10108082;29;20056;-79
2022/09/10 00:34:31;;;;;;;6.05;1.88;;;;;;;15.12;73.08;99881.97;10114208;29;20060;-80
2022/09/10 00:39:34;;;;;;;3.45;1.65;;;;;;;15.15;72.85;99876.22;10112055;29;20049;-79
2022/09/10 00:44:59;;;;;;;3.90;2.05;;;;;;;15.17;73.03;99893.16;10104176;29;20055;-80
2022/09/10 00:50:07;;;;;;;4.50;2.42;;;;;;;15.30;72.58;99888.06;10112512;29;20083;-81
2022/09/10 00:55:11;;;;;;;6.07;2.40;;;;;;;15.33;72.34;99900.44;10111864;29;20045;-80
2022/09/10 01:00:17;;;;;;;3.58;2.20;;;;;;;15.25;72.62;99899.41;10100859;29;20050;-80
2022/09/10 01:05:21;;;;;;;6.93;2.70;;;;;;;15.33;72.31;99903.13;10090453;29;20042;-79
2022/09/10 01:10:27;;;;;;;5.20;2.50;;;;;;;15.34;72.60;99900.31;10108931;29;20054;-78
2022/09/10 01:15:39;;;;;;;6.13;3.15;;;;;;;15.29;72.86;99907.19;10114436;29;20041;-80
2022/09/10 01:21:03;;;;;;;5.30;3.60;;;;;;;15.29;72.75;99904.50;10110248;29;20102;-79
2022/09/10 01:26:24;;;;;;;5.32;2.47;;;;;;;15.14;73.01;99898.88;10112059;29;20076;-79
2022/09/10 01:31:36;;;;;;;5.68;3.03;;;;;;;15.05;73.42;99909.66;10091553;29;20052;-79
2022/09/10 01:36:46;;;;;;;6.00;3.05;;;;;;;15.19;73.61;99908.22;10107670;29;20057;-79
2022/09/10 01:41:53;;;;;;;6.00;3.42;;;;;;;15.22;73.48;99912.41;10107508;29;20157;-79
2022/09/10 01:47:11;;;;;;;5.25;3.10;;;;;;;15.08;74.03;99902.25;10112838;29;20562;-80
2022/09/10 01:52:27;;;;;;;7.35;3.50;;;;;;;14.97;74.01;99906.09;10127160;29;20053;-80
2022/09/10 01:57:40;;;;;;;7.70;3.20;;;;;;;14.94;74.39;99907.28;10089553;29;20041;-80
2022/09/10 02:02:49;;;;;;;5.90;3.30;;;;;;;14.97;74.63;99904.22;10113144;29;20134;-80
2022/09/10 02:07:58;;;;;;;11.13;4.13;;;;;;;15.06;73.78;99902.44;10114375;29;20053;-80
2022/09/10 02:13:01;;;;;;;5.40;3.78;;;;;;;14.85;74.34;99899.31;10103713;29;20064;-80
2022/09/10 02:18:19;;;;;;;5.38;3.80;;;;;;;14.99;73.80;99898.69;10104291;29;20485;-80
2022/09/10 02:23:30;;;;;;;6.93;3.70;;;;;;;14.96;74.38;99889.03;10073403;29;20049;-81
2022/09/10 02:28:33;;;;;;;5.38;3.78;;;;;;;14.99;74.18;99894.09;10087563;29;20049;-81
2022/09/10 02:33:38;;;;;;;8.30;3.72;;;;;;;14.85;74.39;99899.31;10093157;29;20415;-81
2022/09/10 02:38:41;;;;;;;7.72;4.43;;;;;;;14.90;74.55;99899.69;10109228;29;20048;-81
2022/09/10 02:43:45;;;;;;;4.40;3.83;;;;;;;14.91;74.24;99896.78;10076628;29;20049;-80
2022/09/10 02:48:49;;;;;;;4.28;3.63;;;;;;;14.95;74.11;99908.97;10078120;29;20049;-81
2022/09/10 02:53:52;;;;;;;5.28;3.45;;;;;;;14.91;74.48;99896.78;10091264;29;20050;-81
2022/09/10 02:58:55;;;;;;;7.07;3.88;;;;;;;15.04;73.76;99902.56;10088346;29;20149;-81
2022/09/10 03:04:02;;;;;;;8.88;4.47;;;;;;;15.01;73.78;99902.91;10089401;29;20049;-80
2022/09/10 03:09:07;;;;;;;5.18;3.50;;;;;;;14.90;74.43;99902.38;10083799;29;20059;-81
2022/09/10 03:14:11;;;;;;;5.47;3.72;;;;;;;15.07;73.77;99896.00;10085841;29;20556;-80
2022/09/10 03:19:16;;;;;;;9.20;3.53;;;;;;;15.12;73.57;99899.06;10085275;29;20097;-81
2022/09/10 03:24:19;;;;;;;6.50;3.70;;;;;;;15.12;73.82;99888.22;10098848;29;20123;-80
2022/09/10 03:29:23;;;;;;;6.10;4.05;;;;;;;14.97;74.27;99895.28;10097372;29;20090;-79
2022/09/10 03:34:28;;;;;;;5.95;3.85;;;;;;;15.02;73.60;99895.63;10090979;29;20061;-80
2022/09/10 03:39:31;;;;;;;7.43;3.58;;;;;;;14.96;73.91;99890.91;10089899;29;20080;-81
2022/09/10 03:44:34;;;;;;;11.13;3.95;;;;;;;14.82;74.36;99886.97;10099786;29;20084;-82
2022/09/10 03:49:38;;;;;;;9.65;4.18;;;;;;;14.73;74.74;99893.38;10127427;29;20052;-80
2022/09/10 03:54:44;;;;;;;5.07;3.47;;;;;;;14.73;74.69;99899.63;10103722;29;20463;-81
2022/09/10 03:59:48;;;;;;;5.22;4.10;;;;;;;14.72;74.44;99905.16;10087960;29;20046;-80
2022/09/10 04:04:53;;;;;;;8.15;3.95;;;;;;;14.73;74.43;99901.47;10116492;29;20053;-80
2022/09/10 04:09:56;;;;;;;7.20;3.35;;;;;;;14.75;74.12;99908.38;10096215;29;20050;-79
2022/09/10 04:15:00;;;;;;;5.85;3.33;;;;;;;14.63;74.64;99915.09;10095943;29;20046;-80
2022/09/10 04:20:05;;;;;;;3.60;3.08;;;;;;;14.53;74.36;99911.66;10095469;29;20052;-80
2022/09/10 04:25:09;;;;;;;6.55;3.38;;;;;;;14.38;74.60;99924.91;10085442;29;20064;-80
2022/09/10 04:30:14;;;;;;;4.72;2.85;;;;;;;14.37;74.34;99915.97;10097933;29;20491;-80
2022/09/10 04:35:19;;;;;;;5.70;3.20;;;;;;;14.15;75.01;99924.59;10089127;29;20082;-81
2022/09/10 04:40:22;;;;;;;4.65;2.90;;;;;;;14.27;74.47;99936.00;10073697;29;20511;-81
2022/09/10 04:45:25;;;;;;;5.15;3.00;;;;;;;14.25;74.55;99932.59;10101422;29;20114;-79
2022/09/10 04:50:30;;;;;;;5.70;3.00;;;;;;;14.23;74.42;99932.75;10124413;29;20045;-79
2022/09/10 04:55:50;;;;;;;5.72;3.20;;;;;;;14.27;74.23;99930.59;10108978;29;20511;-80
2022/09/10 05:00:55;;;;;;;4.60;3.13;;;;;;;14.47;73.82;99936.66;10082843;29;20049;-79
2022/09/10 05:06:00;;;;;;;3.63;3.05;;;;;;;14.57;73.40;99940.09;10111282;29;20503;-80
2022/09/10 05:11:04;;;;;;;6.10;3.60;;;;;;;14.66;73.15;99939.09;10071580;29;20053;-80
2022/09/10 05:16:07;;;;;;;6.55;3.60;;;;;;;14.82;72.99;99944.59;10073302;29;20074;-80
2022/09/10 05:21:12;;;;;;;7.95;3.88;;;;;;;14.97;72.50;99938.56;10084882;29;20128;-81
2022/09/10 05:26:16;;;;;;;3.90;3.08;;;;;;;15.12;72.12;99938.78;10087734;29;20049;-81
2022/09/10 05:31:19;;;;;;;6.07;3.15;;;;;;;15.17;71.62;99942.69;10076657;29;20116;-81
2022/09/10 05:36:24;;;;;;;5.05;2.97;;;;;;;15.27;71.37;99943.38;10073091;29;20045;-82
2022/09/10 05:41:27;;;;;;;5.43;2.63;;;;;;;15.40;70.87;99937.50;10081462;29;20476;-81
2022/09/10 05:46:32;;;;;;;5.75;2.40;;;;;;;15.51;70.77;99947.19;10100184;29;20049;-79
2022/09/10 05:51:44;;;;;;;5.68;3.13;;;;;;;15.61;70.62;99947.88;10092187;29;20049;-81
2022/09/10 05:56:47;;;;;;;6.03;2.47;;;;;;;15.69;70.17;99947.88;10079846;29;20077;-81
2022/09/10 06:01:51;;;;;;;3.25;2.28;;;;;;;15.86;69.50;99940.59;10092967;29;20167;-80
2022/09/10 06:06:57;;;;;;;3.53;1.95;;;;;;;15.98;69.36;99949.22;10110224;29;20074;-81
2022/09/10 06:12:00;;;;;;;1.75;0.77;;;;;;;16.33;68.67;99942.59;10087169;29;20097;-81
2022/09/10 06:17:04;;;;;;;2.13;1.67;;;;;;;16.50;67.11;99942.56;10082824;29;20053;-81
2022/09/10 06:22:10;;;;;;;2.42;1.48;;;;;;;16.71;66.62;99936.59;10065665;29;20061;-81
2022/09/10 06:27:16;;;;;;;5.10;1.58;;;;;;;16.92;65.39;99939.56;10076910;29;20049;-80
2022/09/10 06:32:20;;;;;;;4.55;2.00;;;;;;;16.69;65.72;99941.31;10081955;29;20049;-81
2022/09/10 06:37:25;;;;;;;2.80;0.95;;;;;;;16.73;65.74;99939.94;10075426;29;20106;-80
2022/09/10 06:42:30;;;;;;;2.35;1.40;;;;;;;16.81;64.87;99934.50;10076519;29;20046;-80
2022/09/10 06:47:49;;;;;;;4.45;1.30;;;;;;;17.17;64.33;99945.72;10084199;29;20121;-81
2022/09/10 06:53:28;;;;;;;1.70;1.10;;;;;;;17.09;64.38;99947.63;10074926;29;20123;-79
2022/09/10 06:58:33;;;;;;;2.38;1.60;;;;;;;17.32;63.39;99953.09;10070501;29;20052;-80
2022/09/10 07:03:37;;;;;;;2.13;1.33;;;;;;;16.84;64.25;99958.56;10076361;29;20172;-80
2022/09/10 07:08:42;;;;;;;2.90;1.52;;;;;;;16.89;64.80;99947.19;10088775;29;20056;-79
2022/09/10 07:13:50;;;;;;;6.97;1.63;;;;;;;17.42;63.37;99951.84;10124074;29;20050;-81
2022/09/10 07:18:58;;;;;;;3.33;1.83;;;;;;;18.01;62.24;99948.53;10101127;29;20049;-80
2022/09/10 07:24:20;;;;;;;2.53;1.73;;;;;;;18.34;60.72;99954.50;10085643;29;20070;-81
2022/09/10 07:29:43;;;;;;;2.88;1.70;;;;;;;17.40;62.04;99970.19;10111966;29;20048;-81
2022/09/10 07:34:51;;;;;;;2.30;1.80;;;;;;;17.39;62.94;99957.66;10093749;29;20060;-80
2022/09/10 07:39:57;;;;;;;4.22;1.90;;;;;;;17.75;62.11;99969.78;10091292;29;20045;-79
2022/09/10 07:45:00;;;;;;;3.08;1.98;;;;;;;17.74;62.14;99968.94;10086520;29;20052;-80
2022/09/10 07:50:04;;;;;;;2.80;2.30;;;;;;;16.71;65.40;99982.69;10085687;29;20029;-78
2022/09/10 07:55:09;;;;;;;11.15;3.17;;;;;;;16.61;66.66;99977.44;10108408;29;20321;-79
2022/09/10 08:00:15;;;;;;;4.35;3.10;;;;;;;16.56;66.55;99987.97;10115595;29;20069;-79
2022/09/10 08:05:25;;;;;;;7.57;2.97;;;;;;;16.24;67.75;99994.28;10062328;29;20058;-78
2022/09/10 08:10:30;;;;;;;5.00;3.33;;;;;;;16.29;67.73;99998.19;10084679;29;20074;-79
2022/09/10 08:15:34;;;;;;;9.93;3.08;;;;;;;16.10;68.17;100004.78;10106180;29;20104;-80
2022/09/10 08:20:38;;;;;;;7.15;3.47;;;;;;;16.64;66.28;100014.22;10089699;29;20105;-80
2022/09/10 08:25:51;;;;;;;3.10;2.80;;;;;;;16.86;66.56;100016.19;10093068;29;20120;-79
2022/09/10 08:30:59;;;;;;;4.83;2.40;;;;;;;17.10;65.00;100030.69;10087889;29;20140;-80
2022/09/10 08:36:05;;;;;;;5.45;2.90;;;;;;;16.83;66.25;100021.13;10085744;29;20301;-80
2022/09/10 08:41:22;;;;;;;5.20;3.28;;;;;;;16.71;66.17;100043.19;10120212;29;20049;-79
2022/09/10 08:46:32;;;;;;;4.35;3.80;;;;;;;16.71;66.63;100028.78;10096487;29;20053;-81
2022/09/10 08:51:42;;;;;;;4.55;4.00;;;;;;;17.10;65.83;100026.13;10095121;29;20049;-80
2022/09/10 08:56:49;;;;;;;6.18;3.80;;;;;;;17.82;63.66;100030.50;10090372;29;20053;-81
2022/09/10 09:01:58;;;;;;;5.95;3.25;;;;;;;18.34;62.12;100030.63;10090855;29;20140;-80
2022/09/10 09:07:10;;;;;;;3.83;3.42;;;;;;;18.85;60.57;100040.03;10088817;29;20049;-80
2022/09/10 09:12:25;;;;;;;4.78;4.28;;;;;;;18.05;62.94;100044.16;10078553;29;20413;-79
2022/09/10 09:17:43;;;;;;;4.05;3.75;;;;;;;18.94;60.01;100047.06;10104392;29;20083;-80
2022/09/10 09:22:53;;;;;;;5.03;4.03;;;;;;;18.13;62.03;100033.22;10124843;29;20082;-80
2022/09/10 09:28:17;;;;;;;5.55;4.47;;;;;;;17.90;62.46;100039.44;10086469;29;20053;-79
2022/09/10 09:33:23;;;;;;;4.95;3.83;;;;;;;17.71;63.81;100031.75;10100075;29;20065;-80
2022/09/10 09:38:32;;;;;;;5.18;4.45;;;;;;;17.55;64.01;100045.44;10091227;29;20041;-79
2022/09/10 09:43:51;;;;;;;4.85;4.50;;;;;;;17.23;65.07;100055.44;10077377;29;20079;-79
2022/09/10 09:48:58;;;;;;;4.90;4.50;;;;;;;16.99;66.14;100056.34;10116087;29;20088;-80
2022/09/10 09:54:06;;;;;;;5.68;4.15;;;;;;;17.48;65.53;100040.72;10090560;29;20574;-81
2022/09/10 09:59:33;;;;;;;5.50;5.05;;;;;;;17.95;62.80;100044.34;10071877;29;20128;-80
2022/09/10 10:04:36;;;;;;;5.82;5.32;;;;;;;18.21;61.98;100038.59;10122758;29;20074;-81
2022/09/10 10:09:48;;;;;;;6.18;4.50;;;;;;;18.89;59.54;100028.59;10087972;29;20053;-80
2022/09/10 10:14:52;;;;;;;4.63;3.78;;;;;;;19.52;58.75;100030.88;10123364;29;20081;-79
2022/09/10 10:20:09;;;;;;;4.55;4.15;;;;;;;19.32;59.17;100030.63;10108804;29;20083;-79
2022/09/10 10:25:37;;;;;;;5.35;4.28;;;;;;;19.66;57.80;100027.28;10108507;29;20132;-80
2022/09/10 10:30:41;;;;;;;6.65;3.63;;;;;;;20.32;56.48;100021.66;10097803;29;20049;-79
2022/09/10 10:35:50;;;;;;;4.50;3.33;;;;;;;20.31;54.98;100023.56;10093967;29;20050;-79
2022/09/10 10:41:06;;;;;;;5.85;3.70;;;;;;;19.38;57.97;100024.41;10091971;29;20041;-79
2022/09/10 10:46:17;;;;;;;4.05;3.30;;;;;;;20.00;56.80;100023.06;10096018;29;20053;-80
2022/09/10 10:51:32;;;;;;;5.45;5.05;;;;;;;20.02;55.98;100010.91;10090114;29;20075;-79
2022/09/10 10:56:40;;;;;;;6.70;5.07;;;;;;;19.77;55.96;100017.75;10088397;29;20057;-81
2022/09/10 11:01:50;;;;;;;3.83;3.50;;;;;;;20.58;53.77;100015.59;10094023;29;20048;-80
2022/09/10 11:06:58;;;;;;;3.40;3.20;;;;;;;21.91;50.40;99996.25;10075009;29;20543;-79
2022/09/10 11:12:05;;;;;;;4.05;2.58;;;;;;;21.86;49.16;99997.75;10102149;29;20101;-80
2022/09/10 11:17:15;;;;;;;2.72;2.03;;;;;;;21.84;49.11;99991.63;10097304;29;20052;-82
2022/09/10 11:22:22;;;;;;;3.78;2.25;;;;;;;21.29;50.75;99998.19;10089858;29;20072;-81
2022/09/10 11:27:29;;;;;;;4.32;2.13;;;;;;;20.93;51.39;99993.78;10114622;29;20049;-83
2022/09/10 11:32:38;;;;;;;2.33;1.42;;;;;;;20.88;50.53;99996.25;10104811;29;20137;-81
2022/09/10 11:37:53;;;;;;;3.10;2.30;;;;;;;21.00;50.48;99998.19;10106311;29;20049;-81
2022/09/10 11:43:01;;;;;;;2.05;1.60;;;;;;;22.71;46.85;99997.97;10111539;29;20053;-79
2022/09/10 11:48:16;;;;;;;3.58;1.98;;;;;;;22.10;48.14;99996.31;10102799;29;20097;-81
2022/09/10 11:53:22;;;;;;;2.17;2.00;;;;;;;21.00;50.57;99995.47;10088583;29;20041;-81
2022/09/10 11:58:35;;;;;;;4.63;2.10;;;;;;;20.43;52.22;99998.47;10102253;29;20045;-80
2022/09/10 12:04:11;;;;;;;2.90;2.70;;;;;;;21.05;51.67;99988.59;10116841;29;20122;-80
2022/09/10 12:09:20;;;;;;;2.90;2.70;;;;;;;21.28;51.06;99997.31;10100403;29;20076;-81
2022/09/10 12:14:23;;;;;;;3.45;3.00;;;;;;;20.93;51.39;99994.63;10106182;29;20084;-81
2022/09/10 12:19:30;;;;;;;5.20;3.25;;;;;;;20.38;52.18;99999.09;10109260;29;20066;-80
2022/09/10 12:24:36;;;;;;;7.88;3.38;;;;;;;20.41;53.33;100009.59;10097167;29;20147;-80
2022/09/10 12:29:40;;;;;;;3.60;3.30;;;;;;;18.57;61.91;100027.88;10100538;29;20079;-80
2022/09/10 12:34:47;;;;;;;11.57;5.03;;;;;;;17.23;72.78;100036.44;10096025;29;20118;-80
2022/09/10 12:40:30;;;;;;;7.13;5.65;;;;;;;15.75;81.73;100032.16;10099842;29;20085;-80
2022/09/10 12:46:01;;;;;;;10.90;7.70;;;;;;;15.88;85.03;100030.66;10077148;29;20061;-81
2022/09/10 12:51:19;;;;;;;7.80;7.13;;;;;;;15.96;87.01;100028.97;10069564;29;20061;-80
2022/09/10 12:56:57;;;;;;;7.20;5.82;;;;;;;16.07;85.74;100021.38;10097882;29;20097;-81
2022/09/10 13:02:00;;;;;;;5.43;5.03;;;;;;;16.11;85.43;100033.53;10080160;29;20571;-81
2022/09/10 13:07:18;;;;;;;6.93;6.32;;;;;;;16.22;82.69;100024.22;10079353;29;20114;-82
2022/09/10 13:12:24;;;;;;;7.80;5.60;;;;;;;16.37;81.33;100021.69;10102382;29;20067;-81
2022/09/10 13:18:00;;;;;;;5.53;4.00;;;;;;;16.51;79.43;100026.47;10105968;29;20442;-82
2022/09/10 13:23:20;;;;;;;6.00;4.40;;;;;;;16.81;78.80;100016.72;10068509;29;20151;-82
2022/09/10 13:29:03;;;;;;;7.38;6.50;;;;;;;17.15;78.52;100018.31;10069535;29;20057;-83
2022/09/10 13:34:39;;;;;;;7.03;6.32;;;;;;;17.46;77.11;100014.78;10096589;29;20052;-83
2022/09/10 13:40:02;;;;;;;6.97;6.28;;;;;;;17.79;76.23;100014.56;10081759;29;20491;-83
2022/09/10 13:45:20;;;;;;;7.80;6.75;;;;;;;18.13;76.45;100017.75;10120615;29;20101;-82
2022/09/10 13:50:26;;;;;;;7.22;6.53;;;;;;;18.67;73.11;100015.88;10109067;29;20052;-83
2022/09/10 13:55:32;;;;;;;7.45;5.50;;;;;;;18.75;75.38;100002.19;10105268;29;20044;-82
2022/09/10 14:00:41;;;;;;;6.20;5.60;;;;;;;19.11;72.36;100004.19;10079563;29;20046;-83
2022/09/10 14:05:48;;;;;;;5.05;4.38;;;;;;;19.19;70.81;100007.63;10097571;29;20049;-83
2022/09/10 14:10:56;;;;;;;4.95;4.53;;;;;;;18.87;67.22;100008.03;10072641;29;20143;-82
2022/09/10 14:16:02;;;;;;;4.93;4.53;;;;;;;19.06;71.89;100012.94;10090849;29;20045;-81
2022/09/10 14:21:06;;;;;;;3.70;3.40;;;;;;;19.07;69.69;100014.59;10098798;29;20063;-82
2022/09/10 14:26:22;;;;;;;4.82;4.35;;;;;;;18.92;68.68;100016.47;10094632;29;20060;-82
2022/09/10 14:31:32;;;;;;;9.38;5.22;;;;;;;18.80;67.57;100014.22;10099503;29;20045;-82
2022/09/10 14:36:35;;;;;;;5.05;4.57;;;;;;;18.98;69.45;100007.59;10098419;29;20415;-82
2022/09/10 14:41:40;;;;;;;7.72;5.00;;;;;;;19.07;66.59;100014.59;10097654;29;20040;-81
2022/09/10 14:46:48;;;;;;;5.60;5.10;;;;;;;19.17;66.54;100009.72;10102686;29;20045;-82
2022/09/10 14:51:52;;;;;;;5.22;4.75;;;;;;;19.39;66.92;100009.75;10111588;29;20079;-81
2022/09/10 14:56:58;;;;;;;6.20;5.65;;;;;;;19.30;65.12;100002.75;10106012;29;20065;-81
2022/09/10 15:02:06;;;;;;;6.00;5.50;;;;;;;19.13;66.39;100004.84;10097099;29;20105;-79
2022/09/10 15:07:10;;;;;;;7.55;5.20;;;;;;;19.05;66.19;100003.06;10090434;29;20063;-81
2022/09/10 15:12:19;;;;;;;6.22;5.68;;;;;;;19.04;66.50;100005.97;10073746;29;20047;-78
2022/09/10 15:17:22;;;;;;;5.72;4.55;;;;;;;19.06;65.05;99996.59;10129577;29;20124;-79
2022/09/10 15:22:27;;;;;;;5.20;4.68;;;;;;;19.02;65.65;99996.13;10117499;29;20128;-80
2022/09/10 15:27:32;;;;;;;3.72;3.50;;;;;;;19.07;64.75;100003.72;10092731;29;20067;-80
2022/09/10 15:32:36;;;;;;;3.60;3.30;;;;;;;19.02;64.29;100006.16;10102332;29;20120;-81
2022/09/10 15:37:39;;;;;;;4.20;3.83;;;;;;;18.95;65.49;100000.63;10101918;29;20044;-81
2022/09/10 15:42:43;;;;;;;4.25;2.95;;;;;;;18.99;64.07;100003.81;10079642;29;20049;-80
2022/09/10 15:47:46;;;;;;;2.90;2.70;;;;;;;18.83;61.35;100015.72;10100351;29;20049;-80
2022/09/10 15:52:49;;;;;;;3.13;2.65;;;;;;;18.69;61.85;100027.41;10105394;29;20154;-79
2022/09/10 15:57:54;;;;;;;2.50;2.30;;;;;;;18.60;61.66;100025.84;10112236;29;20049;-81
2022/09/10 16:02:56;;;;;;;3.40;3.20;;;;;;;18.50;62.55;100029.63;10089998;29;20037;-80
2022/09/10 16:07:59;;;;;;;3.53;3.22;;;;;;;18.43;63.14;100033.28;10084918;29;20132;-78
2022/09/10 16:13:04;;;;;;;2.63;2.40;;;;;;;18.38;63.42;100030.28;10097665;29;20045;-79
2022/09/10 16:18:06;;;;;;;2.70;2.58;;;;;;;18.27;63.85;100042.44;10079202;29;20049;-79
2022/09/10 16:23:09;;;;;;;3.55;2.78;;;;;;;18.18;63.12;100043.53;10089352;29;20087;-79
2022/09/10 16:28:14;;;;;;;2.85;2.08;;;;;;;18.16;64.29;100051.03;10111855;29;20058;-80
2022/09/10 16:33:17;;;;;;;2.67;2.45;;;;;;;18.06;63.04;100045.84;10097590;29;20329;-79
2022/09/10 16:38:20;;;;;;;3.10;2.80;;;;;;;18.07;64.08;100055.66;10098415;29;20052;-79
2022/09/10 16:43:25;;;;;;;3.33;3.03;;;;;;;17.98;63.87;100054.88;10090987;29;20053;-80
2022/09/10 16:48:28;;;;;;;4.15;2.20;;;;;;;17.98;63.90;100054.03;10106748;29;20453;-81
2022/09/10 16:53:30;;;;;;;4.22;3.55;;;;;;;18.00;65.62;100052.00;10099402;29;20045;-80
2022/09/10 16:58:36;;;;;;;3.47;3.17;;;;;;;18.02;66.63;100052.63;10094855;29;20049;-80
2022/09/10 17:03:40;;;;;;;3.55;3.25;;;;;;;18.00;67.52;100054.72;10097686;29;20076;-79
2022/09/10 17:08:43;;;;;;;3.97;3.75;;;;;;;17.74;68.88;100061.28;10100982;29;20070;-80
2022/09/10 17:13:49;;;;;;;3.28;3.03;;;;;;;17.64;67.48;100058.81;10098373;29;20041;-80
2022/09/10 17:18:57;;;;;;;2.92;2.72;;;;;;;17.60;68.26;100056.63;10088231;29;20438;-78
2022/09/10 17:24:01;;;;;;;3.47;3.17;;;;;;;17.27;69.57;100064.91;10084020;29;20049;-79
2022/09/10 17:29:08;;;;;;;3.40;3.20;;;;;;;17.03;70.52;100077.53;10095165;29;20045;-79
2022/09/10 17:34:12;;;;;;;3.13;2.83;;;;;;;16.96;70.87;100078.41;10104137;29;20048;-80
2022/09/10 17:39:15;;;;;;;3.88;2.78;;;;;;;16.83;70.99;100088.94;10088951;29;20064;-79
2022/09/10 17:44:19;;;;;;;3.58;2.88;;;;;;;16.76;71.37;100086.06;10096344;29;20064;-80
2022/09/10 17:49:23;;;;;;;6.13;3.40;;;;;;;16.74;71.35;100105.22;10101626;29;20057;-80
2022/09/10 17:54:26;;;;;;;3.10;2.90;;;;;;;16.71;71.50;100115.56;10095889;29;20518;-81
2022/09/10 17:59:30;;;;;;;4.75;3.47;;;;;;;16.64;72.29;100115.38;10087564;29;20387;-79
2022/09/10 18:04:33;;;;;;;4.55;3.38;;;;;;;16.69;72.93;100132.00;10091094;29;20106;-80
2022/09/10 18:09:36;;;;;;;3.40;3.20;;;;;;;16.77;73.65;100128.44;10089365;29;20049;-81
2022/09/10 18:14:41;;;;;;;3.92;3.63;;;;;;;16.77;74.11;100140.13;10082364;29;20053;-81
2022/09/10 18:19:44;;;;;;;3.60;3.30;;;;;;;16.73;74.38;100149.63;10079502;29;20045;-80
2022/09/10 18:24:47;;;;;;;4.28;3.88;;;;;;;16.71;74.52;100146.25;10073949;29;20063;-80
2022/09/10 18:29:51;;;;;;;3.97;3.67;;;;;;;16.72;74.56;100157.94;10087978;29;20082;-81
2022/09/10 18:34:56;;;;;;;3.42;3.20;;;;;;;16.75;74.42;100165.72;10092450;29;20116;-80
2022/09/10 18:39:59;;;;;;;3.60;3.40;;;;;;;16.74;74.68;100164.03;10092686;29;20065;-80
2022/09/10 18:45:04;;;;;;;4.82;4.18;;;;;;;16.71;74.48;100167.09;10081289;29;20049;-80
2022/09/10 18:50:09;;;;;;;5.43;3.85;;;;;;;16.67;74.86;100177.41;10067449;29;20053;-80
2022/09/10 18:55:11;;;;;;;4.18;3.88;;;;;;;16.59;74.98;100181.00;10088999;29;20078;-79
2022/09/10 19:00:16;;;;;;;4.30;4.00;;;;;;;16.60;74.96;100187.25;10087576;29;20054;-78
2022/09/10 19:05:19;;;;;;;4.47;4.18;;;;;;;16.59;75.29;100183.72;10102640;29;20097;-82
2022/09/10 19:10:22;;;;;;;6.43;4.57;;;;;;;16.49;75.34;100195.72;10090370;29;20535;-81
2022/09/10 19:15:26;;;;;;;4.55;4.15;;;;;;;16.30;76.01;100191.47;10094459;29;20080;-80
2022/09/10 19:20:29;;;;;;;5.10;4.47;;;;;;;16.30;76.41;100199.59;10114524;29;20053;-80
2022/09/10 19:25:32;;;;;;;4.95;4.53;;;;;;;16.31;76.51;100212.13;10093487;29;20075;-80
2022/09/10 19:30:38;;;;;;;5.65;4.30;;;;;;;16.38;76.46;100215.03;10097749;29;20053;-81
2022/09/10 19:35:43;;;;;;;4.43;4.03;;;;;;;16.38;76.63;100215.88;10087100;29;20045;-80
2022/09/10 19:40:45;;;;;;;4.75;4.30;;;;;;;16.36;76.51;100221.44;10081130;29;20534;-80
2022/09/10 19:45:54;;;;;;;5.20;4.80;;;;;;;16.33;76.54;100229.06;10077768;29;20052;-80
2022/09/10 19:50:59;;;;;;;6.10;5.60;;;;;;;16.19;76.84;100235.09;10099179;29;20073;-80
2022/09/10 19:56:06;;;;;;;5.13;4.70;;;;;;;16.22;76.91;100242.88;10076486;29;20062;-80
2022/09/10 20:01:11;;;;;;;5.55;4.72;;;;;;;16.28;76.83;100242.25;10095242;29;20073;-80
2022/09/10 20:06:17;;;;;;;4.70;4.40;;;;;;;16.30;76.88;100251.09;10077782;29;20465;-79
2022/09/10 20:11:23;;;;;;;5.45;4.95;;;;;;;16.25;76.90;100245.28;10083262;29;20121;-79
2022/09/10 20:16:28;;;;;;;6.70;6.10;;;;;;;16.09;76.62;100243.34;10077618;29;20048;-79
2022/09/10 20:21:32;;;;;;;6.50;5.90;;;;;;;16.07;76.97;100246.25;10085642;29;20041;-80
2022/09/10 20:26:37;;;;;;;6.30;5.80;;;;;;;16.12;76.80;100259.28;10093255;29;20064;-79
2022/09/10 20:31:42;;;;;;;6.43;5.93;;;;;;;16.10;77.25;100256.75;10107799;29;20029;-80
2022/09/10 20:36:46;;;;;;;6.43;5.82;;;;;;;16.13;77.21;100255.56;10119545;29;20052;-80
2022/09/10 20:41:49;;;;;;;5.65;5.15;;;;;;;16.08;76.95;100255.22;10101276;29;20049;-79
2022/09/10 20:46:53;;;;;;;6.22;5.63;;;;;;;16.08;77.32;100258.75;10086824;29;20044;-79
2022/09/10 20:51:58;;;;;;;7.55;6.85;;;;;;;16.02;77.19;100259.41;10100118;29;20055;-80
2022/09/10 20:57:01;;;;;;;7.72;6.75;;;;;;;16.00;77.09;100269.56;10097668;29;20053;-80
2022/09/10 21:02:07;;;;;;;7.28;6.57;;;;;;;15.91;77.38;100270.53;10089875;29;20052;-79
2022/09/10 21:07:10;;;;;;;8.98;7.93;;;;;;;15.87;77.45;100271.88;10092988;29;20048;-80
2022/09/10 21:12:13;;;;;;;10.82;9.60;;;;;;;15.74;78.16;100277.72;10094939;29;20052;-81
2022/09/10 21:17:17;;;;;;;11.52;10.38;;;;;;;15.83;78.16;100273.22;10083725;29;20099;-80
2022/09/10 21:22:20;;;;;;;12.40;11.15;;;;;;;15.85;78.41;100279.28;10105621;29;20059;-79
2022/09/10 21:27:23;;;;;;;13.00;11.70;;;;;;;15.87;78.19;100274.56;10085992;29;20074;-80
2022/09/10 21:32:27;;;;;;;11.23;10.13;;;;;;;15.87;77.79;100275.41;10083844;29;20065;-80
2022/09/10 21:37:30;;;;;;;11.60;10.10;;;;;;;15.84;77.31;100283.88;10076876;29;20077;-80
2022/09/10 21:42:34;;;;;;;11.85;10.73;;;;;;;15.81;77.15;100291.47;10087980;29;20049;-80
2022/09/10 21:47:38;;;;;;;11.63;10.18;;;;;;;15.75;76.88;100295.69;10091138;29;20155;-79
2022/09/10 21:52:41;;;;;;;12.00;10.90;;;;;;;15.55;77.67;100292.34;10091760;29;20049;-80
2022/09/10 21:57:44;;;;;;;15.55;11.60;;;;;;;15.10;79.72;100289.75;10095430;29;20197;-80
2022/09/10 22:02:49;;;;;;;12.60;11.35;;;;;;;15.09;80.65;100297.03;10095625;29;20096;-80
2022/09/10 22:07:53;;;;;;;15.27;12.20;;;;;;;15.13;79.92;100301.09;10098374;29;20056;-79
2022/09/10 22:12:56;;;;;;;14.90;12.15;;;;;;;15.24;79.10;100306.28;10084985;29;20112;-79
2022/09/10 22:18:00;;;;;;;15.65;11.38;;;;;;;15.08;79.20;100316.09;10088280;29;20060;-79
2022/09/10 22:23:04;;;;;;;12.98;11.57;;;;;;;15.26;78.70;100314.25;10075560;29;20491;-80
2022/09/10 22:28:07;;;;;;;11.63;10.43;;;;;;;15.31;77.56;100321.91;10071016;29;20083;-79
2022/09/10 22:33:11;;;;;;;11.45;10.35;;;;;;;15.32;76.97;100324.44;10075957;29;20077;-77
2022/09/10 22:38:13;;;;;;;12.00;10.82;;;;;;;15.10;77.36;100339.28;10087750;29;20189;-80
2022/09/10 22:43:21;;;;;;;11.82;10.70;;;;;;;15.08;77.24;100349.41;10094686;29;20111;-81
2022/09/10 22:48:26;;;;;;;11.55;10.45;;;;;;;15.08;77.57;100356.69;10072591;29;20073;-80
2022/09/10 22:53:29;;;;;;;10.93;9.30;;;;;;;15.16;77.79;100354.06;10083888;29;20041;-80
2022/09/10 22:58:32;;;;;;;11.13;10.02;;;;;;;15.11;77.10;100361.78;10103219;29;20041;-80
2022/09/10 23:03:37;;;;;;;10.95;9.95;;;;;;;15.16;77.29;100362.16;10094658;29;20057;-80
2022/09/10 23:08:40;;;;;;;12.30;9.77;;;;;;;15.20;77.04;100374.41;10077175;29;20065;-80
2022/09/10 23:13:45;;;;;;;11.07;9.57;;;;;;;15.25;76.88;100372.09;10096835;29;20507;-80
2022/09/10 23:18:51;;;;;;;10.15;9.15;;;;;;;15.31;76.87;100374.16;10085039;29;20112;-78
2022/09/10 23:23:56;;;;;;;11.00;9.85;;;;;;;15.32;76.10;100380.41;10093156;29;20112;-81
2022/09/10 23:29:02;;;;;;;10.32;9.32;;;;;;;14.83;77.34;100389.72;10087329;29;20050;-79
2022/09/10 23:34:09;;;;;;;11.73;10.52;;;;;;;14.80;77.78;100392.75;10126515;29;20053;-78
2022/09/10 23:39:14;;;;;;;10.73;9.48;;;;;;;14.82;77.87;100398.00;10097860;29;20518;-80